sensor_id;sensor_type;location;lat;lon;timestamp;P1;durP1;ratioP1;P2;durP2;ratioP2
19406;SDS011;9839;53.364;-1.204;2023-04-03T00:01:01;7.47;;;2.57;;
19406;SDS011;9839;53.364;-1.204;2023-04-03T00:03:27;6.10;;;2.20;;
19406;SDS011;9839;53.364;-1.204;2023-04-03T00:05:52;6.20;;;2.53;;
19406;SDS011;9839;53.364;-1.204;2023-04-03T00:08:18;5.23;;;2.80;;
19406;SDS011;9839;53.364;-1.204;2023-04-03T00:10:43;7.87;;;2.20;;
19406;SDS011;9839;53.364;-1.204;2023-04-03T00:13:09;6.30;;;2.17;;
19406;SDS011;9839;53.364;-1.204;2023-04-03T00:15:35;4.77;;;2.00;;
19406;SDS011;9839;53.364;-1.204;2023-04-03T00:18:01;4.20;;;2.27;;
19406;SDS011;9839;53.364;-1.204;2023-04-03T00:20:27;6.33;;;1.80;;
19406;SDS011;9839;53.364;-1.204;2023-04-03T00:22:52;7.20;;;1.97;;
19406;SDS011;9839;53.364;-1.204;2023-04-03T00:25:18;4.80;;;2.20;;
19406;SDS011;9839;53.364;-1.204;2023-04-03T00:27:44;4.97;;;2.43;;
19406;SDS011;9839;53.364;-1.204;2023-04-03T00:30:10;4.60;;;2.03;;
19406;SDS011;9839;53.364;-1.204;2023-04-03T00:32:39;5.23;;;2.23;;
19406;SDS011;9839;53.364;-1.204;2023-04-03T00:35:05;8.97;;;2.57;;
19406;SDS011;9839;53.364;-1.204;2023-04-03T00:37:31;5.67;;;2.03;;
19406;SDS011;9839;53.364;-1.204;2023-04-03T00:39:57;3.13;;;1.77;;
19406;SDS011;9839;53.364;-1.204;2023-04-03T00:42:22;5.47;;;2.70;;
19406;SDS011;9839;53.364;-1.204;2023-04-03T00:47:14;10.03;;;3.00;;
19406;SDS011;9839;53.364;-1.204;2023-04-03T00:49:41;5.77;;;2.50;;
19406;SDS011;9839;53.364;-1.204;2023-04-03T00:52:08;7.33;;;2.80;;
19406;SDS011;9839;53.364;-1.204;2023-04-03T00:54:37;5.57;;;2.73;;
19406;SDS011;9839;53.364;-1.204;2023-04-03T00:57:03;8.17;;;3.13;;
19406;SDS011;9839;53.364;-1.204;2023-04-03T00:59:31;8.23;;;3.27;;
19406;SDS011;9839;53.364;-1.204;2023-04-03T01:01:59;11.40;;;3.90;;
19406;SDS011;9839;53.364;-1.204;2023-04-03T01:04:35;5.17;;;2.70;;
19406;SDS011;9839;53.364;-1.204;2023-04-03T01:07:06;6.20;;;2.63;;
19406;SDS011;9839;53.364;-1.204;2023-04-03T01:09:33;7.53;;;2.80;;
19406;SDS011;9839;53.364;-1.204;2023-04-03T01:14:41;6.00;;;2.53;;
19406;SDS011;9839;53.364;-1.204;2023-04-03T01:19:52;6.07;;;2.93;;
19406;SDS011;9839;53.364;-1.204;2023-04-03T01:22:30;6.77;;;2.30;;
19406;SDS011;9839;53.364;-1.204;2023-04-03T01:25:02;5.73;;;2.77;;
19406;SDS011;9839;53.364;-1.204;2023-04-03T01:27:28;5.97;;;3.20;;
19406;SDS011;9839;53.364;-1.204;2023-04-03T01:29:53;7.47;;;2.70;;
19406;SDS011;9839;53.364;-1.204;2023-04-03T01:32:19;10.37;;;3.17;;
19406;SDS011;9839;53.364;-1.204;2023-04-03T01:34:44;9.07;;;2.77;;
19406;SDS011;9839;53.364;-1.204;2023-04-03T01:37:09;4.57;;;2.90;;
19406;SDS011;9839;53.364;-1.204;2023-04-03T01:39:35;6.67;;;2.87;;
19406;SDS011;9839;53.364;-1.204;2023-04-03T01:42:00;10.53;;;3.53;;
19406;SDS011;9839;53.364;-1.204;2023-04-03T01:44:26;9.60;;;3.07;;
19406;SDS011;9839;53.364;-1.204;2023-04-03T01:46:51;9.20;;;2.90;;
19406;SDS011;9839;53.364;-1.204;2023-04-03T01:49:17;5.90;;;3.00;;
19406;SDS011;9839;53.364;-1.204;2023-04-03T01:51:42;6.50;;;3.00;;
19406;SDS011;9839;53.364;-1.204;2023-04-03T01:54:07;4.53;;;2.60;;
19406;SDS011;9839;53.364;-1.204;2023-04-03T01:56:33;6.57;;;3.10;;
19406;SDS011;9839;53.364;-1.204;2023-04-03T01:58:58;10.37;;;2.83;;
19406;SDS011;9839;53.364;-1.204;2023-04-03T02:01:24;7.80;;;3.33;;
19406;SDS011;9839;53.364;-1.204;2023-04-03T02:03:50;6.93;;;2.73;;
19406;SDS011;9839;53.364;-1.204;2023-04-03T02:06:16;8.70;;;3.47;;
19406;SDS011;9839;53.364;-1.204;2023-04-03T02:08:41;9.93;;;3.53;;
19406;SDS011;9839;53.364;-1.204;2023-04-03T02:11:07;8.40;;;3.00;;
19406;SDS011;9839;53.364;-1.204;2023-04-03T02:13:32;6.77;;;4.00;;
19406;SDS011;9839;53.364;-1.204;2023-04-03T02:15:58;9.67;;;3.40;;
19406;SDS011;9839;53.364;-1.204;2023-04-03T02:18:24;7.33;;;2.97;;
19406;SDS011;9839;53.364;-1.204;2023-04-03T02:20:49;6.93;;;3.30;;
19406;SDS011;9839;53.364;-1.204;2023-04-03T02:23:15;6.43;;;3.10;;
19406;SDS011;9839;53.364;-1.204;2023-04-03T02:25:40;9.93;;;4.00;;
19406;SDS011;9839;53.364;-1.204;2023-04-03T02:28:06;9.20;;;3.63;;
19406;SDS011;9839;53.364;-1.204;2023-04-03T02:30:31;9.17;;;3.83;;
19406;SDS011;9839;53.364;-1.204;2023-04-03T02:32:57;13.67;;;3.77;;
19406;SDS011;9839;53.364;-1.204;2023-04-03T02:35:22;7.93;;;3.80;;
19406;SDS011;9839;53.364;-1.204;2023-04-03T02:37:47;6.90;;;3.67;;
19406;SDS011;9839;53.364;-1.204;2023-04-03T02:40:13;8.63;;;4.00;;
19406;SDS011;9839;53.364;-1.204;2023-04-03T02:42:38;9.57;;;4.13;;
19406;SDS011;9839;53.364;-1.204;2023-04-03T02:45:04;8.43;;;3.57;;
19406;SDS011;9839;53.364;-1.204;2023-04-03T02:47:30;8.60;;;4.03;;
19406;SDS011;9839;53.364;-1.204;2023-04-03T02:49:55;8.20;;;3.40;;
19406;SDS011;9839;53.364;-1.204;2023-04-03T02:52:21;8.47;;;3.03;;
19406;SDS011;9839;53.364;-1.204;2023-04-03T02:54:46;8.03;;;3.30;;
19406;SDS011;9839;53.364;-1.204;2023-04-03T02:57:12;6.43;;;3.70;;
19406;SDS011;9839;53.364;-1.204;2023-04-03T02:59:38;6.30;;;3.30;;
19406;SDS011;9839;53.364;-1.204;2023-04-03T03:02:07;7.07;;;3.57;;
19406;SDS011;9839;53.364;-1.204;2023-04-03T03:04:33;12.57;;;4.10;;
19406;SDS011;9839;53.364;-1.204;2023-04-03T03:06:59;6.10;;;3.50;;
19406;SDS011;9839;53.364;-1.204;2023-04-03T03:09:24;10.63;;;3.83;;
19406;SDS011;9839;53.364;-1.204;2023-04-03T03:11:51;6.07;;;3.10;;
19406;SDS011;9839;53.364;-1.204;2023-04-03T03:14:16;8.10;;;3.40;;
19406;SDS011;9839;53.364;-1.204;2023-04-03T03:16:42;9.77;;;3.77;;
19406;SDS011;9839;53.364;-1.204;2023-04-03T03:19:07;6.97;;;2.87;;
19406;SDS011;9839;53.364;-1.204;2023-04-03T03:21:33;5.83;;;3.30;;
19406;SDS011;9839;53.364;-1.204;2023-04-03T03:23:58;7.93;;;3.53;;
19406;SDS011;9839;53.364;-1.204;2023-04-03T03:26:24;7.10;;;3.40;;
19406;SDS011;9839;53.364;-1.204;2023-04-03T03:28:50;7.10;;;3.13;;
19406;SDS011;9839;53.364;-1.204;2023-04-03T03:31:15;6.10;;;2.97;;
19406;SDS011;9839;53.364;-1.204;2023-04-03T03:33:40;14.60;;;3.97;;
19406;SDS011;9839;53.364;-1.204;2023-04-03T03:36:06;6.10;;;3.00;;
19406;SDS011;9839;53.364;-1.204;2023-04-03T03:38:31;10.03;;;3.47;;
19406;SDS011;9839;53.364;-1.204;2023-04-03T03:40:57;7.57;;;3.70;;
19406;SDS011;9839;53.364;-1.204;2023-04-03T03:43:22;5.67;;;2.97;;
19406;SDS011;9839;53.364;-1.204;2023-04-03T03:45:51;11.67;;;3.43;;
19406;SDS011;9839;53.364;-1.204;2023-04-03T03:48:17;6.53;;;3.10;;
19406;SDS011;9839;53.364;-1.204;2023-04-03T03:50:43;7.13;;;3.20;;
19406;SDS011;9839;53.364;-1.204;2023-04-03T03:53:08;7.93;;;3.00;;
19406;SDS011;9839;53.364;-1.204;2023-04-03T03:55:33;6.17;;;2.83;;
19406;SDS011;9839;53.364;-1.204;2023-04-03T03:57:59;10.37;;;3.33;;
19406;SDS011;9839;53.364;-1.204;2023-04-03T04:00:26;6.87;;;3.00;;
19406;SDS011;9839;53.364;-1.204;2023-04-03T04:02:51;8.37;;;3.03;;
19406;SDS011;9839;53.364;-1.204;2023-04-03T04:05:17;8.03;;;2.80;;
19406;SDS011;9839;53.364;-1.204;2023-04-03T04:07:42;5.73;;;2.90;;
19406;SDS011;9839;53.364;-1.204;2023-04-03T04:10:08;6.80;;;3.27;;
19406;SDS011;9839;53.364;-1.204;2023-04-03T04:12:34;7.63;;;3.27;;
19406;SDS011;9839;53.364;-1.204;2023-04-03T04:15:00;8.43;;;2.80;;
19406;SDS011;9839;53.364;-1.204;2023-04-03T04:17:26;7.43;;;3.00;;
19406;SDS011;9839;53.364;-1.204;2023-04-03T04:19:52;7.63;;;3.23;;
19406;SDS011;9839;53.364;-1.204;2023-04-03T04:22:17;9.83;;;4.07;;
19406;SDS011;9839;53.364;-1.204;2023-04-03T04:24:43;7.47;;;3.60;;
19406;SDS011;9839;53.364;-1.204;2023-04-03T04:27:08;5.70;;;2.93;;
19406;SDS011;9839;53.364;-1.204;2023-04-03T04:29:34;8.77;;;3.10;;
19406;SDS011;9839;53.364;-1.204;2023-04-03T04:32:01;6.80;;;3.10;;
19406;SDS011;9839;53.364;-1.204;2023-04-03T04:34:27;7.43;;;3.33;;
19406;SDS011;9839;53.364;-1.204;2023-04-03T04:36:53;7.23;;;2.90;;
19406;SDS011;9839;53.364;-1.204;2023-04-03T04:39:18;6.83;;;2.87;;
19406;SDS011;9839;53.364;-1.204;2023-04-03T04:41:43;5.87;;;3.20;;
19406;SDS011;9839;53.364;-1.204;2023-04-03T04:44:09;10.63;;;3.03;;
19406;SDS011;9839;53.364;-1.204;2023-04-03T04:46:35;6.93;;;3.00;;
19406;SDS011;9839;53.364;-1.204;2023-04-03T04:49:00;6.17;;;3.00;;
19406;SDS011;9839;53.364;-1.204;2023-04-03T04:51:25;4.83;;;2.60;;
19406;SDS011;9839;53.364;-1.204;2023-04-03T04:53:51;5.67;;;3.13;;
19406;SDS011;9839;53.364;-1.204;2023-04-03T04:56:16;6.30;;;2.87;;
19406;SDS011;9839;53.364;-1.204;2023-04-03T04:58:42;9.03;;;3.43;;
19406;SDS011;9839;53.364;-1.204;2023-04-03T05:01:08;8.10;;;3.10;;
19406;SDS011;9839;53.364;-1.204;2023-04-03T05:03:34;8.33;;;2.67;;
19406;SDS011;9839;53.364;-1.204;2023-04-03T05:06:00;6.63;;;3.40;;
19406;SDS011;9839;53.364;-1.204;2023-04-03T05:08:26;5.53;;;2.50;;
19406;SDS011;9839;53.364;-1.204;2023-04-03T05:10:51;10.87;;;3.40;;
19406;SDS011;9839;53.364;-1.204;2023-04-03T05:13:18;6.13;;;3.30;;
19406;SDS011;9839;53.364;-1.204;2023-04-03T05:15:43;6.63;;;3.00;;
19406;SDS011;9839;53.364;-1.204;2023-04-03T05:18:10;9.43;;;4.00;;
19406;SDS011;9839;53.364;-1.204;2023-04-03T05:20:35;6.80;;;3.07;;
19406;SDS011;9839;53.364;-1.204;2023-04-03T05:23:02;6.83;;;3.00;;
19406;SDS011;9839;53.364;-1.204;2023-04-03T05:25:27;8.37;;;3.17;;
19406;SDS011;9839;53.364;-1.204;2023-04-03T05:27:53;7.83;;;3.10;;
19406;SDS011;9839;53.364;-1.204;2023-04-03T05:30:18;6.43;;;2.80;;
19406;SDS011;9839;53.364;-1.204;2023-04-03T05:32:44;9.80;;;2.90;;
19406;SDS011;9839;53.364;-1.204;2023-04-03T05:35:09;10.73;;;3.10;;
19406;SDS011;9839;53.364;-1.204;2023-04-03T05:37:35;9.93;;;3.60;;
19406;SDS011;9839;53.364;-1.204;2023-04-03T05:40:01;8.30;;;3.67;;
19406;SDS011;9839;53.364;-1.204;2023-04-03T05:42:26;13.67;;;3.77;;
19406;SDS011;9839;53.364;-1.204;2023-04-03T05:44:52;7.90;;;3.50;;
19406;SDS011;9839;53.364;-1.204;2023-04-03T05:47:18;8.53;;;2.87;;
19406;SDS011;9839;53.364;-1.204;2023-04-03T05:49:44;10.73;;;3.20;;
19406;SDS011;9839;53.364;-1.204;2023-04-03T05:54:49;8.30;;;3.07;;
19406;SDS011;9839;53.364;-1.204;2023-04-03T05:57:15;8.00;;;4.00;;
19406;SDS011;9839;53.364;-1.204;2023-04-03T05:59:41;8.77;;;3.70;;
19406;SDS011;9839;53.364;-1.204;2023-04-03T06:02:11;9.87;;;3.97;;
19406;SDS011;9839;53.364;-1.204;2023-04-03T06:04:37;10.10;;;4.60;;
19406;SDS011;9839;53.364;-1.204;2023-04-03T06:07:03;9.80;;;3.90;;
19406;SDS011;9839;53.364;-1.204;2023-04-03T06:09:29;9.30;;;4.07;;
19406;SDS011;9839;53.364;-1.204;2023-04-03T06:11:55;8.83;;;3.67;;
19406;SDS011;9839;53.364;-1.204;2023-04-03T06:14:23;9.63;;;4.00;;
19406;SDS011;9839;53.364;-1.204;2023-04-03T06:16:49;10.53;;;4.47;;
19406;SDS011;9839;53.364;-1.204;2023-04-03T06:19:15;7.90;;;4.23;;
19406;SDS011;9839;53.364;-1.204;2023-04-03T06:21:41;11.10;;;4.00;;
19406;SDS011;9839;53.364;-1.204;2023-04-03T06:24:06;8.17;;;3.93;;
19406;SDS011;9839;53.364;-1.204;2023-04-03T06:26:32;12.30;;;4.10;;
19406;SDS011;9839;53.364;-1.204;2023-04-03T06:28:59;15.40;;;4.77;;
19406;SDS011;9839;53.364;-1.204;2023-04-03T06:31:25;12.03;;;5.43;;
19406;SDS011;9839;53.364;-1.204;2023-04-03T06:33:50;11.37;;;5.37;;
19406;SDS011;9839;53.364;-1.204;2023-04-03T06:36:17;19.47;;;5.83;;
19406;SDS011;9839;53.364;-1.204;2023-04-03T06:38:45;13.73;;;5.83;;
19406;SDS011;9839;53.364;-1.204;2023-04-03T06:41:10;15.00;;;5.60;;
19406;SDS011;9839;53.364;-1.204;2023-04-03T06:43:36;18.13;;;7.33;;
19406;SDS011;9839;53.364;-1.204;2023-04-03T06:46:01;15.27;;;7.30;;
19406;SDS011;9839;53.364;-1.204;2023-04-03T06:48:27;10.57;;;6.20;;
19406;SDS011;9839;53.364;-1.204;2023-04-03T06:50:53;14.10;;;6.10;;
19406;SDS011;9839;53.364;-1.204;2023-04-03T06:53:18;14.20;;;6.13;;
19406;SDS011;9839;53.364;-1.204;2023-04-03T06:55:44;10.63;;;6.10;;
19406;SDS011;9839;53.364;-1.204;2023-04-03T06:58:10;12.33;;;5.47;;
19406;SDS011;9839;53.364;-1.204;2023-04-03T07:00:35;10.43;;;5.20;;
19406;SDS011;9839;53.364;-1.204;2023-04-03T07:03:01;9.20;;;4.73;;
19406;SDS011;9839;53.364;-1.204;2023-04-03T07:05:26;11.17;;;4.60;;
19406;SDS011;9839;53.364;-1.204;2023-04-03T07:07:52;12.93;;;4.93;;
19406;SDS011;9839;53.364;-1.204;2023-04-03T07:10:18;9.23;;;5.10;;
19406;SDS011;9839;53.364;-1.204;2023-04-03T07:12:44;16.00;;;6.37;;
19406;SDS011;9839;53.364;-1.204;2023-04-03T07:15:09;14.93;;;6.20;;
19406;SDS011;9839;53.364;-1.204;2023-04-03T07:17:37;10.70;;;4.93;;
19406;SDS011;9839;53.364;-1.204;2023-04-03T07:20:02;7.37;;;3.20;;
19406;SDS011;9839;53.364;-1.204;2023-04-03T07:22:29;7.07;;;2.90;;
19406;SDS011;9839;53.364;-1.204;2023-04-03T07:24:55;8.47;;;2.53;;
19406;SDS011;9839;53.364;-1.204;2023-04-03T07:27:20;5.67;;;2.40;;
19406;SDS011;9839;53.364;-1.204;2023-04-03T07:29:46;7.37;;;2.40;;
19406;SDS011;9839;53.364;-1.204;2023-04-03T07:32:13;7.60;;;2.17;;
19406;SDS011;9839;53.364;-1.204;2023-04-03T07:34:40;5.03;;;2.00;;
19406;SDS011;9839;53.364;-1.204;2023-04-03T07:37:05;5.60;;;2.00;;
19406;SDS011;9839;53.364;-1.204;2023-04-03T07:39:31;8.57;;;1.90;;
19406;SDS011;9839;53.364;-1.204;2023-04-03T07:41:57;4.03;;;1.87;;
19406;SDS011;9839;53.364;-1.204;2023-04-03T07:44:22;7.03;;;1.93;;
19406;SDS011;9839;53.364;-1.204;2023-04-03T07:46:48;4.83;;;2.33;;
19406;SDS011;9839;53.364;-1.204;2023-04-03T07:49:13;6.47;;;1.83;;
19406;SDS011;9839;53.364;-1.204;2023-04-03T07:51:39;9.20;;;2.03;;
19406;SDS011;9839;53.364;-1.204;2023-04-03T07:54:05;8.20;;;2.77;;
19406;SDS011;9839;53.364;-1.204;2023-04-03T07:56:31;5.63;;;2.60;;
19406;SDS011;9839;53.364;-1.204;2023-04-03T07:58:57;5.00;;;2.10;;
19406;SDS011;9839;53.364;-1.204;2023-04-03T08:01:22;8.47;;;2.43;;
19406;SDS011;9839;53.364;-1.204;2023-04-03T08:03:48;6.90;;;2.57;;
19406;SDS011;9839;53.364;-1.204;2023-04-03T08:06:13;9.17;;;2.57;;
19406;SDS011;9839;53.364;-1.204;2023-04-03T08:08:40;10.10;;;2.53;;
19406;SDS011;9839;53.364;-1.204;2023-04-03T08:11:06;10.70;;;2.00;;
19406;SDS011;9839;53.364;-1.204;2023-04-03T08:13:33;7.23;;;2.50;;
19406;SDS011;9839;53.364;-1.204;2023-04-03T08:16:06;7.63;;;2.17;;
19406;SDS011;9839;53.364;-1.204;2023-04-03T08:18:36;6.47;;;2.53;;
19406;SDS011;9839;53.364;-1.204;2023-04-03T08:21:07;8.17;;;2.40;;
19406;SDS011;9839;53.364;-1.204;2023-04-03T08:23:34;14.07;;;2.87;;
19406;SDS011;9839;53.364;-1.204;2023-04-03T08:26:04;9.33;;;2.30;;
19406;SDS011;9839;53.364;-1.204;2023-04-03T08:28:31;6.10;;;2.10;;
19406;SDS011;9839;53.364;-1.204;2023-04-03T08:31:01;9.27;;;1.93;;
19406;SDS011;9839;53.364;-1.204;2023-04-03T08:33:27;9.57;;;2.20;;
19406;SDS011;9839;53.364;-1.204;2023-04-03T08:35:53;3.90;;;2.23;;
19406;SDS011;9839;53.364;-1.204;2023-04-03T08:38:18;6.17;;;2.17;;
19406;SDS011;9839;53.364;-1.204;2023-04-03T08:40:44;7.10;;;1.77;;
19406;SDS011;9839;53.364;-1.204;2023-04-03T08:50:48;2.80;;;1.50;;
19406;SDS011;9839;53.364;-1.204;2023-04-03T08:53:17;8.43;;;1.90;;
19406;SDS011;9839;53.364;-1.204;2023-04-03T08:55:46;5.87;;;1.90;;
19406;SDS011;9839;53.364;-1.204;2023-04-03T08:58:23;10.77;;;2.03;;
19406;SDS011;9839;53.364;-1.204;2023-04-03T09:00:56;6.90;;;1.63;;
19406;SDS011;9839;53.364;-1.204;2023-04-03T09:03:23;5.30;;;2.07;;
19406;SDS011;9839;53.364;-1.204;2023-04-03T09:05:50;8.57;;;2.13;;
19406;SDS011;9839;53.364;-1.204;2023-04-03T09:11:05;3.33;;;1.30;;
19406;SDS011;9839;53.364;-1.204;2023-04-03T09:14:03;3.93;;;1.23;;
19406;SDS011;9839;53.364;-1.204;2023-04-03T09:22:41;4.80;;;1.30;;
19406;SDS011;9839;53.364;-1.204;2023-04-03T09:27:40;6.63;;;1.73;;
19406;SDS011;9839;53.364;-1.204;2023-04-03T09:30:06;5.80;;;1.50;;
19406;SDS011;9839;53.364;-1.204;2023-04-03T09:32:38;5.23;;;1.00;;
19406;SDS011;9839;53.364;-1.204;2023-04-03T09:35:05;9.57;;;1.30;;
19406;SDS011;9839;53.364;-1.204;2023-04-03T09:37:44;13.97;;;1.50;;
19406;SDS011;9839;53.364;-1.204;2023-04-03T09:40:31;4.13;;;1.70;;
19406;SDS011;9839;53.364;-1.204;2023-04-03T09:43:01;5.47;;;1.47;;
19406;SDS011;9839;53.364;-1.204;2023-04-03T09:45:34;8.23;;;1.60;;
19406;SDS011;9839;53.364;-1.204;2023-04-03T09:51:00;9.77;;;1.27;;
19406;SDS011;9839;53.364;-1.204;2023-04-03T09:55:53;6.70;;;1.93;;
19406;SDS011;9839;53.364;-1.204;2023-04-03T09:58:38;3.43;;;1.03;;
19406;SDS011;9839;53.364;-1.204;2023-04-03T10:01:21;6.63;;;1.50;;
19406;SDS011;9839;53.364;-1.204;2023-04-03T10:04:02;3.37;;;1.10;;
19406;SDS011;9839;53.364;-1.204;2023-04-03T10:06:29;7.00;;;1.40;;
19406;SDS011;9839;53.364;-1.204;2023-04-03T10:09:00;2.77;;;1.03;;
19406;SDS011;9839;53.364;-1.204;2023-04-03T10:11:31;8.50;;;1.10;;
19406;SDS011;9839;53.364;-1.204;2023-04-03T10:16:25;9.03;;;1.33;;
19406;SDS011;9839;53.364;-1.204;2023-04-03T10:26:52;6.10;;;1.20;;
19406;SDS011;9839;53.364;-1.204;2023-04-03T10:29:40;6.70;;;1.47;;
19406;SDS011;9839;53.364;-1.204;2023-04-03T10:32:56;6.67;;;1.20;;
19406;SDS011;9839;53.364;-1.204;2023-04-03T10:40:44;7.30;;;1.37;;
19406;SDS011;9839;53.364;-1.204;2023-04-03T10:54:25;4.20;;;1.20;;
19406;SDS011;9839;53.364;-1.204;2023-04-03T10:57:05;4.40;;;1.07;;
19406;SDS011;9839;53.364;-1.204;2023-04-03T10:59:35;6.30;;;1.10;;
19406;SDS011;9839;53.364;-1.204;2023-04-03T11:05:07;4.20;;;1.40;;
19406;SDS011;9839;53.364;-1.204;2023-04-03T11:07:40;4.97;;;1.10;;
19406;SDS011;9839;53.364;-1.204;2023-04-03T11:10:13;8.23;;;1.20;;
19406;SDS011;9839;53.364;-1.204;2023-04-03T11:12:46;7.13;;;2.00;;
19406;SDS011;9839;53.364;-1.204;2023-04-03T11:15:14;4.37;;;1.30;;
19406;SDS011;9839;53.364;-1.204;2023-04-03T11:17:45;10.27;;;1.60;;
19406;SDS011;9839;53.364;-1.204;2023-04-03T11:20:20;8.65;;;1.40;;
19406;SDS011;9839;53.364;-1.204;2023-04-03T11:23:00;3.30;;;1.20;;
19406;SDS011;9839;53.364;-1.204;2023-04-03T11:25:34;4.37;;;1.40;;
19406;SDS011;9839;53.364;-1.204;2023-04-03T11:28:03;5.90;;;1.67;;
19406;SDS011;9839;53.364;-1.204;2023-04-03T11:30:49;11.97;;;1.60;;
19406;SDS011;9839;53.364;-1.204;2023-04-03T11:36:25;2.90;;;1.10;;
19406;SDS011;9839;53.364;-1.204;2023-04-03T11:39:25;5.00;;;1.10;;
19406;SDS011;9839;53.364;-1.204;2023-04-03T11:41:55;5.33;;;1.30;;
19406;SDS011;9839;53.364;-1.204;2023-04-03T11:44:51;3.33;;;1.08;;
19406;SDS011;9839;53.364;-1.204;2023-04-03T11:48:43;8.23;;;1.33;;
19406;SDS011;9839;53.364;-1.204;2023-04-03T11:51:43;5.70;;;1.43;;
19406;SDS011;9839;53.364;-1.204;2023-04-03T11:53:46;4.30;;;1.02;;
19406;SDS011;9839;53.364;-1.204;2023-04-03T12:01:45;7.35;;;1.50;;
19406;SDS011;9839;53.364;-1.204;2023-04-03T12:04:22;7.40;;;1.60;;
19406;SDS011;9839;53.364;-1.204;2023-04-03T12:09:24;5.63;;;1.77;;
19406;SDS011;9839;53.364;-1.204;2023-04-03T12:11:52;5.55;;;1.40;;
19406;SDS011;9839;53.364;-1.204;2023-04-03T12:14:18;5.10;;;1.23;;
19406;SDS011;9839;53.364;-1.204;2023-04-03T12:16:44;7.10;;;1.42;;
19406;SDS011;9839;53.364;-1.204;2023-04-03T12:29:23;7.45;;;1.35;;
19406;SDS011;9839;53.364;-1.204;2023-04-03T12:45:56;5.45;;;1.65;;
19406;SDS011;9839;53.364;-1.204;2023-04-03T12:51:21;10.52;;;1.67;;
19406;SDS011;9839;53.364;-1.204;2023-04-03T12:53:51;5.35;;;1.33;;
19406;SDS011;9839;53.364;-1.204;2023-04-03T12:56:28;9.30;;;1.35;;
19406;SDS011;9839;53.364;-1.204;2023-04-03T12:58:55;5.35;;;1.70;;
19406;SDS011;9839;53.364;-1.204;2023-04-03T13:01:37;10.15;;;2.33;;
19406;SDS011;9839;53.364;-1.204;2023-04-03T13:04:03;9.95;;;1.92;;
19406;SDS011;9839;53.364;-1.204;2023-04-03T13:06:35;8.93;;;1.80;;
19406;SDS011;9839;53.364;-1.204;2023-04-03T13:09:03;4.55;;;1.25;;
19406;SDS011;9839;53.364;-1.204;2023-04-03T13:11:34;6.75;;;1.50;;
19406;SDS011;9839;53.364;-1.204;2023-04-03T13:14:05;7.20;;;1.30;;
19406;SDS011;9839;53.364;-1.204;2023-04-03T13:16:40;5.13;;;1.33;;
19406;SDS011;9839;53.364;-1.204;2023-04-03T13:19:06;4.95;;;1.58;;
19406;SDS011;9839;53.364;-1.204;2023-04-03T13:21:43;5.63;;;1.30;;
19406;SDS011;9839;53.364;-1.204;2023-04-03T13:24:09;6.32;;;1.27;;
19406;SDS011;9839;53.364;-1.204;2023-04-03T13:26:36;6.10;;;1.48;;
19406;SDS011;9839;53.364;-1.204;2023-04-03T13:29:05;7.25;;;2.13;;
19406;SDS011;9839;53.364;-1.204;2023-04-03T13:31:34;8.50;;;1.85;;
19406;SDS011;9839;53.364;-1.204;2023-04-03T13:34:11;8.68;;;2.17;;
19406;SDS011;9839;53.364;-1.204;2023-04-03T13:36:43;6.13;;;1.48;;
19406;SDS011;9839;53.364;-1.204;2023-04-03T13:41:37;5.82;;;1.60;;
19406;SDS011;9839;53.364;-1.204;2023-04-03T13:46:41;3.70;;;1.58;;
19406;SDS011;9839;53.364;-1.204;2023-04-03T13:49:17;4.97;;;1.50;;
19406;SDS011;9839;53.364;-1.204;2023-04-03T13:52:18;13.60;;;2.20;;
19406;SDS011;9839;53.364;-1.204;2023-04-03T13:54:51;4.40;;;1.30;;
19406;SDS011;9839;53.364;-1.204;2023-04-03T13:57:20;2.08;;;1.17;;
19406;SDS011;9839;53.364;-1.204;2023-04-03T13:59:46;2.65;;;1.20;;
19406;SDS011;9839;53.364;-1.204;2023-04-03T14:02:16;6.65;;;1.58;;
19406;SDS011;9839;53.364;-1.204;2023-04-03T14:07:21;5.05;;;1.30;;
19406;SDS011;9839;53.364;-1.204;2023-04-03T14:09:47;3.95;;;1.38;;
19406;SDS011;9839;53.364;-1.204;2023-04-03T14:12:23;3.10;;;1.42;;
19406;SDS011;9839;53.364;-1.204;2023-04-03T14:14:53;7.47;;;1.70;;
19406;SDS011;9839;53.364;-1.204;2023-04-03T14:17:20;6.38;;;2.08;;
19406;SDS011;9839;53.364;-1.204;2023-04-03T14:19:48;4.20;;;1.50;;
19406;SDS011;9839;53.364;-1.204;2023-04-03T14:22:22;9.00;;;2.00;;
19406;SDS011;9839;53.364;-1.204;2023-04-03T14:24:55;3.65;;;1.60;;
19406;SDS011;9839;53.364;-1.204;2023-04-03T14:27:22;6.18;;;1.67;;
19406;SDS011;9839;53.364;-1.204;2023-04-03T14:29:48;3.42;;;1.55;;
19406;SDS011;9839;53.364;-1.204;2023-04-03T14:32:16;5.53;;;1.73;;
19406;SDS011;9839;53.364;-1.204;2023-04-03T14:34:42;5.40;;;2.25;;
19406;SDS011;9839;53.364;-1.204;2023-04-03T14:37:12;5.05;;;1.65;;
19406;SDS011;9839;53.364;-1.204;2023-04-03T14:39:40;6.10;;;1.58;;
19406;SDS011;9839;53.364;-1.204;2023-04-03T14:42:10;5.63;;;2.03;;
19406;SDS011;9839;53.364;-1.204;2023-04-03T14:44:37;4.15;;;1.60;;
19406;SDS011;9839;53.364;-1.204;2023-04-03T14:47:03;5.05;;;1.67;;
19406;SDS011;9839;53.364;-1.204;2023-04-03T14:49:28;3.42;;;1.60;;
19406;SDS011;9839;53.364;-1.204;2023-04-03T14:51:55;3.95;;;1.60;;
19406;SDS011;9839;53.364;-1.204;2023-04-03T14:54:22;4.93;;;1.80;;
19406;SDS011;9839;53.364;-1.204;2023-04-03T14:56:52;4.25;;;1.60;;
19406;SDS011;9839;53.364;-1.204;2023-04-03T14:59:18;2.88;;;1.60;;
19406;SDS011;9839;53.364;-1.204;2023-04-03T15:01:45;3.58;;;1.52;;
19406;SDS011;9839;53.364;-1.204;2023-04-03T15:04:18;4.28;;;1.70;;
19406;SDS011;9839;53.364;-1.204;2023-04-03T15:06:44;7.68;;;1.98;;
19406;SDS011;9839;53.364;-1.204;2023-04-03T15:09:23;2.92;;;1.65;;
19406;SDS011;9839;53.364;-1.204;2023-04-03T15:11:51;3.45;;;1.40;;
19406;SDS011;9839;53.364;-1.204;2023-04-03T15:14:17;3.40;;;1.45;;
19406;SDS011;9839;53.364;-1.204;2023-04-03T15:16:43;4.60;;;1.70;;
19406;SDS011;9839;53.364;-1.204;2023-04-03T15:19:09;3.42;;;1.95;;
19406;SDS011;9839;53.364;-1.204;2023-04-03T15:21:36;4.75;;;1.55;;
19406;SDS011;9839;53.364;-1.204;2023-04-03T15:24:01;2.63;;;1.30;;
19406;SDS011;9839;53.364;-1.204;2023-04-03T15:26:27;5.88;;;1.70;;
19406;SDS011;9839;53.364;-1.204;2023-04-03T15:28:53;6.20;;;1.77;;
19406;SDS011;9839;53.364;-1.204;2023-04-03T15:31:18;3.25;;;1.60;;
19406;SDS011;9839;53.364;-1.204;2023-04-03T15:33:43;4.00;;;1.83;;
19406;SDS011;9839;53.364;-1.204;2023-04-03T15:36:09;5.95;;;2.17;;
19406;SDS011;9839;53.364;-1.204;2023-04-03T15:38:35;5.50;;;2.33;;
19406;SDS011;9839;53.364;-1.204;2023-04-03T15:41:02;2.05;;;1.70;;
19406;SDS011;9839;53.364;-1.204;2023-04-03T15:43:28;5.30;;;1.65;;
19406;SDS011;9839;53.364;-1.204;2023-04-03T15:45:56;5.35;;;1.52;;
19406;SDS011;9839;53.364;-1.204;2023-04-03T15:48:22;6.15;;;1.98;;
19406;SDS011;9839;53.364;-1.204;2023-04-03T15:50:47;6.35;;;1.83;;
19406;SDS011;9839;53.364;-1.204;2023-04-03T15:53:13;3.25;;;2.10;;
19406;SDS011;9839;53.364;-1.204;2023-04-03T15:55:38;4.60;;;1.80;;
19406;SDS011;9839;53.364;-1.204;2023-04-03T15:58:03;3.53;;;1.80;;
19406;SDS011;9839;53.364;-1.204;2023-04-03T16:00:29;4.10;;;1.70;;
19406;SDS011;9839;53.364;-1.204;2023-04-03T16:02:56;6.38;;;1.95;;
19406;SDS011;9839;53.364;-1.204;2023-04-03T16:05:30;6.20;;;1.80;;
19406;SDS011;9839;53.364;-1.204;2023-04-03T16:07:57;3.78;;;1.60;;
19406;SDS011;9839;53.364;-1.204;2023-04-03T16:10:23;4.93;;;1.77;;
19406;SDS011;9839;53.364;-1.204;2023-04-03T16:12:48;2.63;;;1.70;;
19406;SDS011;9839;53.364;-1.204;2023-04-03T16:15:14;4.90;;;2.00;;
19406;SDS011;9839;53.364;-1.204;2023-04-03T16:17:40;6.03;;;1.77;;
19406;SDS011;9839;53.364;-1.204;2023-04-03T16:20:06;8.98;;;2.22;;
19406;SDS011;9839;53.364;-1.204;2023-04-03T16:22:33;4.75;;;1.88;;
19406;SDS011;9839;53.364;-1.204;2023-04-03T16:24:58;5.95;;;2.70;;
19406;SDS011;9839;53.364;-1.204;2023-04-03T16:27:24;4.05;;;2.10;;
19406;SDS011;9839;53.364;-1.204;2023-04-03T16:29:53;4.28;;;1.83;;
19406;SDS011;9839;53.364;-1.204;2023-04-03T16:32:19;6.13;;;2.20;;
19406;SDS011;9839;53.364;-1.204;2023-04-03T16:34:45;3.03;;;1.60;;
19406;SDS011;9839;53.364;-1.204;2023-04-03T16:37:10;7.30;;;2.13;;
19406;SDS011;9839;53.364;-1.204;2023-04-03T16:39:36;4.10;;;1.90;;
19406;SDS011;9839;53.364;-1.204;2023-04-03T16:42:01;2.72;;;1.92;;